Time;durP1;ratioP1;P1;durP2;ratioP2;P2;SDS_P1;SDS_P2;PMS_P1;PMS_P2;Temp;Humidity;BMP_temperature;BMP_pressure;BME280_temperature;BME280_humidity;BME280_pressure;Samples;Min_cycle;Max_cycle;Signal;HPM_P1;HPM_P2
2022/04/24 00:01:30;;;;;;;6.00;3.40;;;;;;;;;;4998516;28;20250;-81
2022/04/24 00:03:56;;;;;;;2.67;2.17;;;;;;;;;;5017469;28;20181;-82
2022/04/24 00:06:22;;;;;;;2.53;1.83;;;;;;;;;;4999626;28;20223;-81
2022/04/24 00:08:49;;;;;;;5.47;4.40;;;;;;;;;;5017829;28;20227;-80
2022/04/24 00:11:16;;;;;;;8.13;2.93;;;;;;;;;;5015159;28;20524;-80
2022/04/24 00:13:42;;;;;;;2.80;2.57;;;;;;;;;;5015615;28;20250;-81
2022/04/24 00:16:09;;;;;;;2.33;1.93;;;;;;;;;;5016781;28;20276;-81
2022/04/24 00:18:37;;;;;;;3.33;2.20;;;;;;;;;;5017820;28;20185;-80
2022/04/24 00:21:04;;;;;;;4.07;2.60;;;;;;;;;;5017055;28;20272;-81
2022/04/24 00:23:31;;;;;;;5.70;2.83;;;;;;;;;;5017505;28;20213;-81
2022/04/24 00:25:57;;;;;;;3.43;2.70;;;;;;;;;;5016873;28;20213;-81
2022/04/24 00:28:23;;;;;;;4.13;2.83;;;;;;;;;;5017339;28;20658;-81
2022/04/24 00:30:49;;;;;;;3.73;3.33;;;;;;;;;;5017545;28;20264;-81
2022/04/24 00:33:15;;;;;;;4.63;2.90;;;;;;;;;;5017218;28;20257;-81
2022/04/24 00:35:41;;;;;;;5.43;3.13;;;;;;;;;;5017211;28;20184;-81
2022/04/24 00:38:07;;;;;;;7.07;4.97;;;;;;;;;;5016769;28;20177;-81
2022/04/24 00:40:33;;;;;;;4.83;3.50;;;;;;;;;;5017042;28;20192;-81
2022/04/24 00:42:59;;;;;;;3.77;2.63;;;;;;;;;;5016711;28;20212;-82
2022/04/24 00:45:25;;;;;;;3.70;2.77;;;;;;;;;;5016581;28;20208;-81
2022/04/24 00:47:51;;;;;;;5.93;4.07;;;;;;;;;;4999252;28;20235;-81
2022/04/24 00:50:18;;;;;;;5.93;3.77;;;;;;;;;;5016477;28;20177;-81
2022/04/24 00:52:44;;;;;;;3.87;3.50;;;;;;;;;;5017080;28;20228;-81
2022/04/24 00:55:10;;;;;;;2.20;2.10;;;;;;;;;;5016410;28;20383;-81
2022/04/24 00:57:36;;;;;;;2.97;2.57;;;;;;;;;;5016493;28;20181;-80
2022/04/24 01:00:03;;;;;;;2.50;2.20;;;;;;;;;;5016561;28;20181;-81
2022/04/24 01:02:29;;;;;;;6.60;3.87;;;;;;;;;;4999219;28;20177;-81
2022/04/24 01:04:57;;;;;;;1.90;1.80;;;;;;;;;;5016930;28;20227;-80
2022/04/24 01:07:23;;;;;;;2.17;2.00;;;;;;;;;;5016418;28;20182;-81
2022/04/24 01:09:49;;;;;;;5.07;3.53;;;;;;;;;;4999085;28;20231;-81
2022/04/24 01:12:15;;;;;;;2.23;2.03;;;;;;;;;;5016245;28;20196;-81
2022/04/24 01:14:41;;;;;;;3.83;2.77;;;;;;;;;;5016177;28;20177;-81
2022/04/24 01:17:07;;;;;;;8.03;3.13;;;;;;;;;;4998588;28;20191;-81
2022/04/24 01:19:34;;;;;;;3.13;2.87;;;;;;;;;;5016208;28;20215;-81
2022/04/24 01:22:00;;;;;;;3.47;2.63;;;;;;;;;;5016271;28;20180;-81
2022/04/24 01:24:27;;;;;;;4.33;3.60;;;;;;;;;;5015991;28;20173;-81
2022/04/24 01:26:53;;;;;;;3.43;2.83;;;;;;;;;;5015535;28;20678;-81
2022/04/24 01:29:19;;;;;;;4.53;2.23;;;;;;;;;;5015048;28;20189;-81
2022/04/24 01:31:48;;;;;;;4.17;2.93;;;;;;;;;;5016043;28;20259;-81
2022/04/24 01:34:15;;;;;;;2.33;2.13;;;;;;;;;;5015455;28;20456;-82
2022/04/24 01:36:41;;;;;;;2.30;2.00;;;;;;;;;;5015861;28;20199;-81
2022/04/24 01:39:08;;;;;;;4.73;3.77;;;;;;;;;;5015648;28;20184;-82
2022/04/24 01:41:34;;;;;;;1.80;1.70;;;;;;;;;;5015893;28;20279;-81
2022/04/24 01:44:00;;;;;;;4.50;3.83;;;;;;;;;;5015782;28;20181;-81
2022/04/24 01:46:26;;;;;;;4.50;3.37;;;;;;;;;;5015398;28;20209;-81
2022/04/24 01:48:53;;;;;;;2.07;1.97;;;;;;;;;;5016230;28;20209;-81
2022/04/24 01:51:19;;;;;;;5.80;3.37;;;;;;;;;;5016226;28;20177;-81
2022/04/24 01:53:45;;;;;;;8.70;2.03;;;;;;;;;;5016309;28;20191;-81
2022/04/24 01:56:12;;;;;;;3.93;3.50;;;;;;;;;;5015286;28;20681;-81
2022/04/24 01:58:39;;;;;;;4.40;3.27;;;;;;;;;;5015555;28;20286;-80
2022/04/24 02:01:05;;;;;;;3.43;3.13;;;;;;;;;;5015474;28;20196;-81
2022/04/24 02:03:32;;;;;;;3.10;2.80;;;;;;;;;;5015754;28;20181;-81
2022/04/24 02:05:58;;;;;;;3.60;3.17;;;;;;;;;;5015562;28;20227;-81
2022/04/24 02:08:25;;;;;;;5.87;3.33;;;;;;;;;;5015295;28;20176;-81
2022/04/24 02:10:51;;;;;;;3.93;3.53;;;;;;;;;;5015435;28;20268;-80
2022/04/24 02:13:17;;;;;;;4.03;3.63;;;;;;;;;;4997730;28;20653;-81
2022/04/24 02:15:43;;;;;;;2.33;2.13;;;;;;;;;;5015589;28;20185;-80
2022/04/24 02:18:10;;;;;;;5.47;2.77;;;;;;;;;;5015362;28;20188;-82
2022/04/24 02:20:36;;;;;;;2.20;2.03;;;;;;;;;;5017296;28;20246;-81
2022/04/24 02:23:02;;;;;;;3.77;2.50;;;;;;;;;;5004959;28;20583;-80
2022/04/24 02:25:29;;;;;;;2.63;2.07;;;;;;;;;;5005587;28;20212;-80
2022/04/24 02:27:55;;;;;;;3.97;2.07;;;;;;;;;;5022897;28;20219;-81
2022/04/24 02:30:25;;;;;;;6.30;2.90;;;;;;;;;;5019941;28;20171;-80
2022/04/24 02:32:51;;;;;;;2.17;1.97;;;;;;;;;;5021666;28;20205;-80
2022/04/24 02:35:17;;;;;;;3.83;1.93;;;;;;;;;;5021576;28;20181;-80
2022/04/24 02:37:44;;;;;;;5.80;2.70;;;;;;;;;;5020458;28;20192;-82
2022/04/24 02:40:10;;;;;;;2.43;2.00;;;;;;;;;;5019006;28;20178;-84
2022/04/24 02:42:37;;;;;;;2.00;1.83;;;;;;;;;;5000155;28;20189;-82
2022/04/24 02:45:07;;;;;;;4.83;1.83;;;;;;;;;;5015447;28;20300;-81
2022/04/24 02:47:33;;;;;;;2.17;1.57;;;;;;;;;;5014470;28;20194;-81
2022/04/24 02:49:59;;;;;;;1.97;1.87;;;;;;;;;;5015486;28;20227;-81
2022/04/24 02:52:25;;;;;;;3.27;2.60;;;;;;;;;;5017890;28;20237;-82
2022/04/24 02:54:51;;;;;;;3.20;2.17;;;;;;;;;;5021945;28;20260;-82
2022/04/24 02:57:17;;;;;;;10.17;3.97;;;;;;;;;;5025012;28;20249;-83
2022/04/24 02:59:44;;;;;;;3.53;2.87;;;;;;;;;;5038823;28;20173;-82
2022/04/24 03:02:12;;;;;;;2.37;2.13;;;;;;;;;;5029669;28;20185;-81
2022/04/24 03:04:38;;;;;;;2.50;2.30;;;;;;;;;;5014448;28;20346;-82
2022/04/24 03:07:04;;;;;;;1.50;1.10;;;;;;;;;;5014605;28;20678;-82
2022/04/24 03:09:30;;;;;;;2.27;2.07;;;;;;;;;;5014123;28;20181;-82
2022/04/24 03:11:56;;;;;;;5.70;2.37;;;;;;;;;;5024631;28;20181;-81
2022/04/24 03:14:22;;;;;;;2.73;2.63;;;;;;;;;;5022283;28;20181;-82
2022/04/24 03:16:48;;;;;;;5.23;3.13;;;;;;;;;;5023758;28;20199;-82
2022/04/24 03:19:14;;;;;;;1.90;1.67;;;;;;;;;;5021037;28;20240;-83
2022/04/24 03:21:40;;;;;;;3.00;2.80;;;;;;;;;;5015317;28;20176;-81
2022/04/24 03:24:06;;;;;;;4.70;3.57;;;;;;;;;;5013940;28;20183;-81
2022/04/24 03:26:32;;;;;;;2.70;2.50;;;;;;;;;;4995669;28;20677;-82
2022/04/24 03:28:58;;;;;;;6.37;1.93;;;;;;;;;;5013997;28;20191;-81
2022/04/24 03:31:25;;;;;;;2.50;2.27;;;;;;;;;;5013509;28;20181;-81
2022/04/24 03:33:54;;;;;;;2.17;1.97;;;;;;;;;;5013830;28;20267;-80
2022/04/24 03:36:20;;;;;;;2.37;2.27;;;;;;;;;;5013486;28;20197;-80
2022/04/24 03:38:46;;;;;;;8.87;2.53;;;;;;;;;;5013021;28;20189;-82
2022/04/24 03:41:12;;;;;;;3.20;2.97;;;;;;;;;;5013262;28;20207;-81
2022/04/24 03:43:38;;;;;;;8.90;3.27;;;;;;;;;;5013217;28;20202;-81
2022/04/24 03:46:08;;;;;;;3.33;2.83;;;;;;;;;;5012693;28;20669;-81
2022/04/24 03:48:34;;;;;;;4.47;3.13;;;;;;;;;;5012375;28;20189;-82
2022/04/24 03:51:01;;;;;;;6.73;2.33;;;;;;;;;;5011685;28;20546;-81
2022/04/24 03:53:27;;;;;;;5.70;2.70;;;;;;;;;;4994605;28;20590;-82
2022/04/24 03:55:53;;;;;;;5.53;3.40;;;;;;;;;;5013096;28;20262;-82
2022/04/24 03:58:19;;;;;;;4.73;2.53;;;;;;;;;;5012495;28;20214;-82
2022/04/24 04:00:46;;;;;;;3.47;2.87;;;;;;;;;;5012315;28;20703;-81
2022/04/24 04:03:12;;;;;;;3.73;2.63;;;;;;;;;;5013138;28;20253;-81
2022/04/24 04:05:38;;;;;;;1.47;1.37;;;;;;;;;;4995781;28;20805;-82
2022/04/24 04:08:04;;;;;;;5.37;2.70;;;;;;;;;;5012862;28;20224;-82
2022/04/24 04:10:30;;;;;;;5.50;3.13;;;;;;;;;;5012400;28;20629;-84
2022/04/24 04:12:56;;;;;;;1.43;1.33;;;;;;;;;;4994537;28;20315;-80
2022/04/24 04:15:22;;;;;;;4.47;2.80;;;;;;;;;;5011975;28;20270;-80
2022/04/24 04:17:49;;;;;;;4.73;3.60;;;;;;;;;;4994386;28;20199;-81
2022/04/24 04:20:15;;;;;;;3.53;2.83;;;;;;;;;;5009499;28;20181;-81
2022/04/24 04:22:55;;;;;;;3.17;2.67;;;;;;;;;;5011518;28;20188;-81
2022/04/24 04:25:25;;;;;;;3.57;2.70;;;;;;;;;;5011598;28;20661;-80
2022/04/24 04:27:52;;;;;;;3.30;2.87;;;;;;;;;;5011747;28;20190;-81
2022/04/24 04:30:18;;;;;;;2.27;2.10;;;;;;;;;;5011641;28;20197;-81
2022/04/24 04:32:45;;;;;;;3.33;2.60;;;;;;;;;;5011491;28;20251;-80
2022/04/24 04:35:12;;;;;;;2.70;2.30;;;;;;;;;;5012884;28;20256;-81
2022/04/24 04:37:39;;;;;;;1.60;1.53;;;;;;;;;;5012040;28;20185;-81
2022/04/24 04:40:06;;;;;;;2.50;2.40;;;;;;;;;;5011931;28;20272;-81
2022/04/24 04:42:32;;;;;;;4.10;3.17;;;;;;;;;;5006713;28;20240;-82
2022/04/24 04:45:00;;;;;;;2.60;1.80;;;;;;;;;;5006914;28;20220;-81
2022/04/24 04:47:27;;;;;;;2.57;1.90;;;;;;;;;;5001524;28;20251;-82
2022/04/24 04:49:53;;;;;;;6.30;3.90;;;;;;;;;;4999722;28;20181;-82
2022/04/24 04:52:19;;;;;;;4.87;4.00;;;;;;;;;;4993192;28;20276;-86
2022/04/24 04:54:46;;;;;;;2.63;2.13;;;;;;;;;;5000254;28;20702;-82
2022/04/24 04:57:12;;;;;;;3.33;3.03;;;;;;;;;;4980821;28;20200;-82
2022/04/24 04:59:38;;;;;;;3.57;2.00;;;;;;;;;;5003449;28;20201;-82
2022/04/24 05:02:05;;;;;;;3.67;3.30;;;;;;;;;;5005261;28;20220;-80
2022/04/24 05:04:31;;;;;;;2.67;2.40;;;;;;;;;;5007777;28;20189;-81
2022/04/24 05:06:57;;;;;;;5.43;3.97;;;;;;;;;;5001329;28;20272;-81
2022/04/24 05:09:24;;;;;;;1.63;1.53;;;;;;;;;;4985343;28;20673;-80
2022/04/24 05:11:50;;;;;;;3.40;2.63;;;;;;;;;;5010714;28;20185;-82
2022/04/24 05:14:16;;;;;;;5.43;3.60;;;;;;;;;;5014367;28;20269;-82
2022/04/24 05:16:42;;;;;;;2.20;2.10;;;;;;;;;;5014473;28;20221;-81
2022/04/24 05:19:08;;;;;;;3.40;2.87;;;;;;;;;;5014429;28;20227;-82
2022/04/24 05:21:34;;;;;;;2.23;2.07;;;;;;;;;;4996446;28;20243;-82
2022/04/24 05:24:01;;;;;;;3.33;2.47;;;;;;;;;;4997341;28;20201;-81
2022/04/24 05:26:27;;;;;;;5.33;3.53;;;;;;;;;;4992032;28;20209;-81
2022/04/24 05:28:53;;;;;;;3.17;2.40;;;;;;;;;;5002442;28;20197;-83
2022/04/24 05:31:20;;;;;;;4.13;2.80;;;;;;;;;;5011858;28;20189;-82
2022/04/24 05:33:46;;;;;;;4.13;3.80;;;;;;;;;;5013215;28;20215;-84
2022/04/24 05:36:12;;;;;;;3.93;3.00;;;;;;;;;;5014316;28;20668;-82
2022/04/24 05:38:38;;;;;;;3.73;3.10;;;;;;;;;;5013902;28;20265;-82
2022/04/24 05:41:05;;;;;;;4.07;3.50;;;;;;;;;;5014263;28;20271;-82
2022/04/24 05:43:31;;;;;;;4.73;3.67;;;;;;;;;;5014120;28;20182;-82
2022/04/24 05:45:57;;;;;;;2.77;2.53;;;;;;;;;;4985086;28;20284;-83
2022/04/24 05:48:23;;;;;;;6.53;4.53;;;;;;;;;;5013893;28;20280;-83
2022/04/24 05:50:49;;;;;;;6.17;3.07;;;;;;;;;;5003005;28;20642;-84
2022/04/24 05:53:15;;;;;;;3.87;3.30;;;;;;;;;;4985116;28;20233;-85
2022/04/24 05:55:41;;;;;;;2.53;2.03;;;;;;;;;;5008021;28;20315;-83
2022/04/24 05:58:07;;;;;;;3.47;2.37;;;;;;;;;;4997147;28;20185;-82
2022/04/24 06:00:36;;;;;;;4.97;3.17;;;;;;;;;;5004587;28;20269;-82
2022/04/24 06:03:02;;;;;;;4.13;2.90;;;;;;;;;;5009847;28;20209;-82
2022/04/24 06:05:28;;;;;;;4.43;3.33;;;;;;;;;;5001516;28;20250;-82
2022/04/24 06:07:55;;;;;;;4.40;3.93;;;;;;;;;;5006419;28;20204;-82
2022/04/24 06:10:21;;;;;;;2.73;2.47;;;;;;;;;;4998792;28;20185;-82
2022/04/24 06:12:51;;;;;;;5.40;3.50;;;;;;;;;;4977443;28;20546;-81
2022/04/24 06:15:20;;;;;;;4.13;2.77;;;;;;;;;;5010083;28;20212;-84
2022/04/24 06:17:47;;;;;;;4.73;3.83;;;;;;;;;;5013287;28;20192;-82
2022/04/24 06:20:13;;;;;;;4.33;3.47;;;;;;;;;;5013811;28;20243;-82
2022/04/24 06:22:46;;;;;;;5.27;4.07;;;;;;;;;;5014169;28;20181;-82
2022/04/24 06:25:16;;;;;;;3.07;2.43;;;;;;;;;;5012971;28;20212;-82
2022/04/24 06:27:42;;;;;;;3.30;2.23;;;;;;;;;;5008623;28;20220;-82
2022/04/24 06:30:08;;;;;;;6.30;3.10;;;;;;;;;;5003458;28;20204;-82
2022/04/24 06:32:39;;;;;;;3.50;3.20;;;;;;;;;;4993838;28;20205;-82
2022/04/24 06:35:05;;;;;;;3.97;3.37;;;;;;;;;;5000809;28;20182;-82
2022/04/24 06:37:31;;;;;;;5.47;3.23;;;;;;;;;;5009187;28;20192;-87
2022/04/24 06:39:57;;;;;;;6.00;2.87;;;;;;;;;;5003870;28;20201;-89
2022/04/24 06:42:23;;;;;;;5.03;4.30;;;;;;;;;;4993449;28;20227;-84
2022/04/24 06:44:49;;;;;;;4.43;2.30;;;;;;;;;;5008387;28;20197;-82
2022/04/24 06:47:15;;;;;;;3.03;2.70;;;;;;;;;;4989239;28;20205;-85
2022/04/24 06:49:41;;;;;;;2.40;2.20;;;;;;;;;;4973141;28;20573;-84
2022/04/24 06:52:07;;;;;;;3.50;2.37;;;;;;;;;;5008973;28;20189;-82
2022/04/24 06:54:33;;;;;;;5.47;3.17;;;;;;;;;;5008765;28;20185;-85
2022/04/24 06:57:01;;;;;;;4.20;3.10;;;;;;;;;;4980599;28;20189;-84
2022/04/24 06:59:28;;;;;;;2.10;1.90;;;;;;;;;;5013275;28;20185;-84
2022/04/24 07:01:55;;;;;;;2.60;2.33;;;;;;;;;;4990139;28;20201;-83
2022/04/24 07:04:21;;;;;;;5.10;3.00;;;;;;;;;;4984367;28;20200;-83
2022/04/24 07:06:47;;;;;;;2.90;2.63;;;;;;;;;;4989953;28;20220;-85
2022/04/24 07:09:13;;;;;;;4.07;3.33;;;;;;;;;;5009418;28;20212;-84
2022/04/24 07:11:40;;;;;;;7.70;2.30;;;;;;;;;;5006251;28;20280;-84
2022/04/24 07:14:06;;;;;;;3.37;1.73;;;;;;;;;;4975018;28;20185;-85
2022/04/24 07:16:35;;;;;;;1.87;1.70;;;;;;;;;;4996346;28;20196;-82
2022/04/24 07:19:01;;;;;;;2.80;2.30;;;;;;;;;;4990148;28;20181;-83
2022/04/24 07:21:27;;;;;;;3.20;2.07;;;;;;;;;;4991674;28;20192;-82
2022/04/24 07:23:53;;;;;;;2.87;1.60;;;;;;;;;;5013643;28;20189;-83
2022/04/24 07:26:19;;;;;;;2.13;1.93;;;;;;;;;;4993887;28;20209;-83
2022/04/24 07:28:45;;;;;;;2.70;2.38;;;;;;;;;;5015040;28;20189;-82
2022/04/24 07:31:14;;;;;;;2.17;1.77;;;;;;;;;;5008553;28;20180;-82
2022/04/24 07:33:40;;;;;;;2.58;2.33;;;;;;;;;;4983307;28;20278;-84
2022/04/24 07:36:07;;;;;;;3.58;2.13;;;;;;;;;;4995855;28;20204;-81
2022/04/24 07:38:33;;;;;;;1.67;1.58;;;;;;;;;;4996176;28;20177;-82
2022/04/24 07:40:59;;;;;;;5.72;2.67;;;;;;;;;;4996055;28;20193;-84
2022/04/24 07:43:25;;;;;;;3.40;2.47;;;;;;;;;;5013899;28;20200;-85
2022/04/24 07:45:51;;;;;;;3.67;2.22;;;;;;;;;;5005243;28;20304;-85
2022/04/24 07:48:18;;;;;;;1.90;1.42;;;;;;;;;;4996403;28;20275;-84
2022/04/24 07:50:49;;;;;;;2.95;2.28;;;;;;;;;;4979754;28;20196;-83
2022/04/24 07:53:16;;;;;;;2.78;2.17;;;;;;;;;;4996775;28;20205;-85
2022/04/24 07:55:43;;;;;;;2.05;1.95;;;;;;;;;;4997741;28;20324;-84
2022/04/24 07:58:09;;;;;;;2.67;1.77;;;;;;;;;;5015205;28;20251;-85
2022/04/24 08:00:35;;;;;;;2.72;2.00;;;;;;;;;;5003294;28;20193;-86
2022/04/24 08:03:01;;;;;;;4.03;2.33;;;;;;;;;;5008286;28;20191;-84
2022/04/24 08:05:28;;;;;;;1.85;1.58;;;;;;;;;;5013109;28;20200;-84
2022/04/24 08:07:55;;;;;;;3.72;2.15;;;;;;;;;;4989698;28;20201;-83
2022/04/24 08:10:23;;;;;;;6.68;2.15;;;;;;;;;;5003039;28;20257;-84
2022/04/24 08:12:49;;;;;;;2.40;1.30;;;;;;;;;;4997725;28;20220;-85
2022/04/24 08:15:16;;;;;;;3.58;2.17;;;;;;;;;;5014281;28;20205;-85
2022/04/24 08:17:42;;;;;;;2.58;2.10;;;;;;;;;;4997008;28;20189;-85
2022/04/24 08:20:08;;;;;;;2.55;2.30;;;;;;;;;;4996137;28;20213;-85
2022/04/24 08:22:42;;;;;;;2.88;2.22;;;;;;;;;;4996568;28;20260;-85
2022/04/24 08:25:08;;;;;;;3.17;2.08;;;;;;;;;;5015462;28;20184;-85
2022/04/24 08:27:35;;;;;;;3.40;1.95;;;;;;;;;;5014846;28;20189;-88
2022/04/24 08:30:01;;;;;;;4.15;2.85;;;;;;;;;;5014427;28;20193;-83
2022/04/24 08:32:28;;;;;;;2.17;1.80;;;;;;;;;;5012790;28;20174;-85
2022/04/24 08:34:56;;;;;;;2.58;2.35;;;;;;;;;;4997764;28;20192;-85
2022/04/24 08:37:22;;;;;;;2.15;1.92;;;;;;;;;;4998873;28;20173;-86
2022/04/24 08:39:48;;;;;;;3.85;3.20;;;;;;;;;;5019372;28;20193;-85
2022/04/24 08:42:18;;;;;;;1.88;1.52;;;13.70;99.90;;;;;;5002636;28;20646;-85
2022/04/24 08:44:44;;;;;;;3.20;1.77;;;;;;;;;;5019399;28;20181;-85
2022/04/24 08:47:10;;;;;;;2.05;1.83;;;;;;;;;;5003715;28;20221;-86
2022/04/24 08:49:36;;;;;;;3.92;2.85;;;;;;;;;;5000098;28;20196;-85
2022/04/24 08:52:03;;;;;;;1.20;1.13;;;;;;;;;;5020403;28;20189;-85
2022/04/24 08:54:29;;;;;;;2.38;1.95;;;;;;;;;;5020402;28;20182;-84
2022/04/24 08:56:58;;;;;;;2.70;1.55;;;14.00;99.90;;;;;;5002464;28;20177;-85
2022/04/24 08:59:25;;;;;;;5.70;2.47;;;;;;;;;;5018739;28;20181;-85
2022/04/24 09:01:51;;;;;;;2.28;2.08;;;;;;;;;;5021197;28;20181;-84
2022/04/24 09:04:18;;;;;;;2.35;2.05;;;;;;;;;;5017719;28;20178;-85
2022/04/24 09:06:55;;;;;;;4.18;3.03;;;;;;;;;;5016308;28;20205;-85
2022/04/24 09:09:21;;;;;;;4.45;2.88;;;;;;;;;;5017728;28;20189;-83
2022/04/24 09:11:47;;;;;;;2.10;1.85;;;;;;;;;;5021212;28;20268;-84
2022/04/24 09:14:18;;;;;;;3.67;2.08;;;;;;;;;;5001050;28;20618;-84
2022/04/24 09:16:53;;;;;;;2.97;2.17;;;14.80;97.80;;;;;;5019543;28;20246;-83
2022/04/24 09:19:20;;;;;;;2.65;1.88;;;;;;;;;;4984593;28;20543;-84
2022/04/24 09:21:49;;;;;;;2.13;1.92;;;;;;;;;;5017626;28;20199;-83
2022/04/24 09:24:16;;;;;;;6.68;2.53;;;;;;;;;;5016960;28;20622;-83
2022/04/24 09:26:55;;;;;;;2.05;1.80;;;;;;;;;;4999429;28;20232;-83
2022/04/24 09:29:24;;;;;;;8.70;1.90;;;;;;;;;;5019590;28;20185;-83
2022/04/24 09:31:51;;;;;;;2.15;1.90;;;15.00;88.20;;;;;;5001895;28;20193;-83
2022/04/24 09:34:20;;;;;;;2.72;2.05;;;15.50;88.90;;;;;;5022697;28;20181;-83
2022/04/24 09:36:47;;;;;;;2.30;1.80;;;;;;;;;;5019779;28;20174;-83
2022/04/24 09:39:13;;;;;;;4.32;2.78;;;;;;;;;;5023021;28;20218;-84
2022/04/24 09:41:39;;;;;;;5.07;2.28;;;;;;;;;;5009828;28;20192;-85
2022/04/24 09:44:13;;;;;;;3.90;2.17;;;;;;;;;;5019394;28;20231;-84
2022/04/24 09:46:39;;;;;;;1.88;1.67;;;;;;;;;;5017733;28;20205;-84
2022/04/24 09:49:08;;;;;;;2.67;2.17;;;15.90;86.10;;;;;;4998550;28;20216;-82
2022/04/24 09:51:39;;;;;;;2.15;1.85;;;16.20;80.00;;;;;;4999887;28;20204;-82
2022/04/24 09:54:05;;;;;;;2.75;1.95;;;;;;;;;;5017189;28;20227;-83
2022/04/24 09:56:32;;;;;;;3.35;1.70;;;;;;;;;;5002385;28;20268;-83
2022/04/24 09:58:59;;;;;;;1.60;1.45;;;;;;;;;;5018081;28;20174;-84
2022/04/24 10:01:29;;;;;;;2.55;2.33;;;;;;;;;;5018861;28;20188;-84
2022/04/24 10:03:55;;;;;;;1.20;1.10;;;;;;;;;;5001471;28;20177;-85
2022/04/24 10:06:22;;;;;;;2.72;1.80;;;;;;;;;;5002109;28;20212;-82
2022/04/24 10:08:50;;;;;;;1.92;1.77;;;16.70;81.10;;;;;;5020334;28;20174;-85
2022/04/24 10:11:16;;;;;;;3.13;1.85;;;;;;;;;;4985183;28;20193;-85
2022/04/24 10:13:45;;;;;;;1.20;1.10;;;16.90;68.90;;;;;;5022979;28;20227;-85
2022/04/24 10:16:17;;;;;;;2.20;1.70;;;;;;;;;;5004162;28;20201;-83
2022/04/24 10:18:48;;;;;;;2.92;1.52;;;;;;;;;;5038313;28;20184;-86
2022/04/24 10:21:41;;;;;;;3.80;1.90;;;16.50;71.20;;;;;;5022181;28;20197;-84
2022/04/24 10:24:11;;;;;;;1.92;1.67;;;;;;;;;;5021897;28;20181;-84
2022/04/24 10:26:37;;;;;;;2.85;2.03;;;;;;;;;;5002255;28;20224;-83
2022/04/24 10:29:06;;;;;;;3.28;2.15;;;;;;;;;;5000568;28;20276;-84
2022/04/24 10:31:41;;;;;;;3.25;2.22;;;;;;;;;;5000398;28;20585;-84
2022/04/24 10:34:07;;;;;;;5.07;2.60;;;;;;;;;;4999479;28;20250;-84
2022/04/24 10:36:33;;;;;;;1.52;1.42;;;;;;;;;;4998723;28;20193;-83
2022/04/24 10:39:00;;;;;;;2.45;1.88;;;;;;;;;;5016437;28;20189;-83
2022/04/24 10:41:30;;;;;;;2.92;1.80;;;;;;;;;;4991155;28;20197;-84
2022/04/24 10:43:57;;;;;;;1.10;1.00;;;;;;;;;;4997242;28;20235;-83
2022/04/24 10:46:27;;;;;;;2.25;1.67;;;;;;;;;;4997467;28;20295;-84
2022/04/24 10:48:53;;;;;;;2.60;1.40;;;;;;;;;;5014448;28;20186;-84
2022/04/24 10:51:28;;;;;;;2.35;1.90;;;;;;;;;;5016275;28;20184;-84
2022/04/24 10:53:58;;;;;;;2.03;1.75;;;;;;;;;;4997908;28;20674;-83
2022/04/24 10:56:25;;;;;;;3.38;2.20;;;;;;;;;;5000442;28;20246;-82
2022/04/24 10:58:51;;;;;;;1.50;1.40;;;;;;;;;;5002315;28;20182;-82
2022/04/24 11:01:18;;;;;;;2.28;1.65;;;;;;;;;;4978982;28;20189;-84
2022/04/24 11:03:45;;;;;;;1.80;1.65;;;;;;;;;;4997435;28;20189;-85
2022/04/24 11:06:21;;;;;;;1.95;1.15;;;;;;;;;;5015428;28;20209;-83
2022/04/24 11:08:48;;;;;;;1.27;1.00;;;;;;;;;;4998418;28;20373;-84
2022/04/24 11:11:14;;;;;;;1.50;1.40;;;;;;;;;;4978732;28;20185;-83
2022/04/24 11:13:41;;;;;;;1.73;1.63;;;;;;;;;;4964632;28;20353;-84
2022/04/24 11:16:07;;;;;;;2.53;1.92;;;;;;;;;;4978483;28;20220;-85
2022/04/24 11:18:33;;;;;;;3.42;2.58;;;;;;;;;;4977574;28;20209;-85
2022/04/24 11:21:01;;;;;;;1.42;1.33;;;;;;;;;;4961601;28;20722;-86
2022/04/24 11:23:38;;;;;;;2.35;1.45;;;;;;;;;;4995503;28;20184;-84
2022/04/24 11:26:08;;;;;;;1.85;1.42;;;;;;;;;;4995421;28;20291;-84
2022/04/24 11:28:42;;;;;;;2.95;2.10;;;17.70;91.00;;;;;;5005412;28;20204;-84
2022/04/24 11:31:08;;;;;;;1.92;1.63;;;;;;;;;;5015786;28;20180;-85
2022/04/24 11:33:36;;;;;;;2.90;1.73;;;17.90;91.60;;;;;;5015013;28;20200;-84
2022/04/24 11:36:04;;;;;;;2.20;1.85;;;;;;;;;;5015952;28;20182;-85
2022/04/24 11:38:31;;;;;;;1.60;1.33;;;;;;;;;;5007097;28;20174;-84
2022/04/24 11:40:57;;;;;;;2.45;1.50;;;;;;;;;;5004134;28;20185;-88
2022/04/24 11:43:23;;;;;;;2.22;1.35;;;;;;;;;;5020100;28;20189;-88
2022/04/24 11:51:19;;;;;;;1.63;1.25;;;;;;;;;;5034749;28;20196;-83
2022/04/24 11:53:45;;;;;;;1.67;1.45;;;;;;;;;;5014380;28;20189;-85
2022/04/24 11:56:12;;;;;;;1.85;1.23;;;;;;;;;;5013047;28;20760;-86
2022/04/24 11:58:40;;;;;;;2.33;1.60;;;17.70;89.00;;;;;;5013864;28;20224;-86
2022/04/24 12:01:09;;;;;;;3.47;0.90;;;17.70;78.60;;;;;;5020839;28;20220;-85
2022/04/24 12:03:37;;;;;;;1.48;1.30;;;18.00;83.50;;;;;;5014895;28;20201;-84
2022/04/24 12:06:07;;;;;;;1.67;1.50;;;17.90;77.90;;;;;;4979797;28;20212;-84
2022/04/24 12:08:50;;;;;;;1.75;1.15;;;;;;;;;;5013080;28;20185;-83
2022/04/24 12:11:32;;;;;;;1.35;1.10;;;;;;;;;;4994438;28;20260;-83
2022/04/24 12:14:07;;;;;;;1.90;1.35;;;17.80;80.30;;;;;;5013288;28;20204;-87
2022/04/24 12:16:33;;;;;;;2.85;1.73;;;;;;;;;;5000109;28;20238;-83
2022/04/24 12:19:00;;;;;;;1.48;1.38;;;;;;;;;;5001484;28;20185;-84
2022/04/24 12:21:27;;;;;;;2.28;1.48;;;18.00;84.90;;;;;;5000443;28;20181;-83
2022/04/24 12:23:55;;;;;;;1.75;1.50;;;17.70;86.20;;;;;;5019463;28;20177;-82
2022/04/24 12:26:21;;;;;;;3.65;1.85;;;;;;;;;;5016652;28;20394;-82
2022/04/24 12:28:48;;;;;;;1.95;1.58;;;17.10;90.60;;;;;;5016546;28;20189;-82
2022/04/24 12:31:21;;;;;;;1.88;1.73;;;;;;;;;;5001510;28;20260;-81
2022/04/24 12:33:48;;;;;;;2.08;1.58;;;;;;;;;;5019617;28;20219;-84
2022/04/24 12:36:15;;;;;;;1.48;1.38;;;;;;;;;;5016601;28;20207;-83
2022/04/24 12:38:58;;;;;;;2.65;1.67;;;17.70;87.00;;;;;;4999803;28;20188;-83
2022/04/24 12:41:30;;;;;;;1.98;1.80;;;;;;;;;;4998232;28;20173;-83
2022/04/24 12:44:00;;;;;;;2.00;1.50;;;18.40;99.90;;;;;;5000827;28;20208;-84
2022/04/24 12:46:26;;;;;;;1.60;1.50;;;;;;;;;;4999824;28;20221;-84
2022/04/24 12:48:54;;;;;;;2.10;1.65;;;;;;;;;;4996540;28;20185;-83
2022/04/24 12:51:21;;;;;;;2.10;1.63;;;;;;;;;;5015618;28;20201;-83
2022/04/24 12:53:48;;;;;;;2.67;1.70;;;;;;;;;;4997946;28;20182;-84
2022/04/24 12:56:14;;;;;;;2.15;1.35;;;;;;;;;;4996856;28;20240;-82
2022/04/24 12:58:40;;;;;;;1.33;1.23;;;;;;;;;;4998797;28;20185;-83
2022/04/24 13:01:07;;;;;;;2.50;1.55;;;;;;;;;;5015314;28;20184;-83
2022/04/24 13:03:34;;;;;;;1.85;1.38;;;;;;;;;;5015901;28;20174;-84
2022/04/24 13:06:00;;;;;;;2.35;1.50;;;;;;;;;;4997887;28;20208;-84
2022/04/24 13:08:26;;;;;;;1.35;1.17;;;;;;;;;;5015278;28;20185;-85
2022/04/24 13:10:53;;;;;;;1.50;1.40;;;;;;;;;;5015458;28;20239;-83
2022/04/24 13:13:19;;;;;;;1.25;1.05;;;;;;;;;;5014332;28;20244;-84
2022/04/24 13:18:07;;;;;;;2.88;2.20;;;;;;;;;;5015738;28;20686;-85
2022/04/24 13:18:31;;;;;;;1.55;1.45;;;;;;;;;;4999173;28;20177;-83
2022/04/24 13:20:57;;;;;;;4.03;1.70;;;;;;;;;;5016235;28;20634;-83
2022/04/24 13:23:23;;;;;;;2.30;1.83;;;;;;;;;;5015215;28;20181;-84
2022/04/24 13:25:50;;;;;;;3.90;1.63;;;;;;;;;;5015689;28;20209;-83
2022/04/24 13:28:16;;;;;;;1.20;1.00;;;;;;;;;;5013101;28;20201;-82
2022/04/24 13:30:46;;;;;;;1.67;1.13;;;;;;;;;;4998205;28;20190;-82
2022/04/24 13:33:14;;;;;;;2.15;1.80;;;;;;;;;;4997918;28;20181;-84
2022/04/24 13:35:40;;;;;;;3.65;1.75;;;;;;;;;;5015709;28;20660;-85
2022/04/24 13:38:18;;;;;;;3.38;1.70;;;;;;;;;;4982288;28;20177;-88
2022/04/24 13:40:45;;;;;;;1.50;1.00;;;;;;;;;;4994651;28;20193;-84
2022/04/24 13:43:12;;;;;;;1.88;1.58;;;;;;;;;;5016053;28;20252;-84
2022/04/24 13:45:39;;;;;;;2.70;2.17;;;;;;;;;;4998238;28;20212;-83
2022/04/24 13:48:06;;;;;;;2.78;2.17;;;;;;;;;;5017213;28;20192;-83
2022/04/24 13:50:35;;;;;;;1.20;1.05;;;;;;;;;;5015642;28;20181;-82
2022/04/24 13:53:01;;;;;;;1.35;1.13;;;;;;;;;;5016697;28;20676;-83
2022/04/24 13:55:27;;;;;;;7.65;2.78;;;;;;;;;;5021526;28;20300;-81
2022/04/24 13:57:54;;;;;;;2.95;1.63;;;;;;;;;;5033082;28;20172;-82
2022/04/24 14:00:20;;;;;;;1.05;1.02;;;;;;;;;;5023501;28;20243;-87
2022/04/24 14:02:47;;;;;;;2.58;1.63;;;;;;;;;;5014514;28;20181;-83
2022/04/24 14:05:13;;;;;;;2.70;1.50;;;;;;;;;;5006951;28;20185;-83
2022/04/24 14:07:43;;;;;;;2.22;1.35;;;;;;;;;;5014398;28;20196;-84
2022/04/24 14:10:09;;;;;;;2.13;1.50;;;;;;;;;;4997708;28;20191;-84
2022/04/24 14:12:36;;;;;;;2.38;1.70;;;;;;;;;;5010316;28;20247;-83
2022/04/24 14:15:02;;;;;;;1.00;1.00;;;;;;;;;;5013201;28;20268;-83
2022/04/24 14:17:28;;;;;;;1.25;1.15;;;;;;;;;;5013875;28;20216;-83
2022/04/24 14:19:54;;;;;;;3.38;1.40;;;;;;;;;;4988798;28;20188;-83
2022/04/24 14:22:20;;;;;;;1.40;1.23;;;;;;;;;;5013787;28;20191;-84
2022/04/24 14:24:46;;;;;;;1.23;1.02;;;;;;;;;;4989341;28;20192;-82
2022/04/24 14:27:13;;;;;;;1.25;0.93;;;;;;;;;;5001809;28;20236;-83
2022/04/24 14:29:40;;;;;;;1.05;0.95;;;;;;;;;;5007820;28;20693;-82
2022/04/24 14:32:06;;;;;;;1.13;0.98;;;;;;;;;;4984226;28;20213;-81
2022/04/24 14:34:34;;;;;;;1.25;1.15;;;;;;;;;;4988135;28;20202;-83
2022/04/24 14:37:00;;;;;;;1.90;1.10;;;;;;;;;;5004852;28;20186;-84
2022/04/24 14:39:30;;;;;;;1.25;1.15;;;;;;;;;;4988602;28;20251;-85
2022/04/24 14:41:57;;;;;;;3.13;1.80;;;;;;;;;;4984404;28;20193;-85